sensor_id;sensor_type;location;lat;lon;timestamp;P1;durP1;ratioP1;P2;durP2;ratioP2
77111;SDS011;66064;50.226;14.344;2023-02-01T00:01:56;8.50;;;7.80;;
77111;SDS011;66064;50.226;14.344;2023-02-01T00:04:22;8.68;;;8.10;;
77111;SDS011;66064;50.226;14.344;2023-02-01T00:06:48;8.80;;;7.63;;
77111;SDS011;66064;50.226;14.344;2023-02-01T00:09:14;9.70;;;8.80;;
77111;SDS011;66064;50.226;14.344;2023-02-01T00:11:40;11.05;;;10.27;;
77111;SDS011;66064;50.226;14.344;2023-02-01T00:14:06;8.55;;;7.93;;
77111;SDS011;66064;50.226;14.344;2023-02-01T00:16:33;7.53;;;6.72;;
77111;SDS011;66064;50.226;14.344;2023-02-01T00:19:01;8.48;;;7.80;;
77111;SDS011;66064;50.226;14.344;2023-02-01T00:21:32;8.00;;;7.30;;
77111;SDS011;66064;50.226;14.344;2023-02-01T00:23:58;8.90;;;8.20;;
77111;SDS011;66064;50.226;14.344;2023-02-01T00:26:30;9.52;;;9.02;;
77111;SDS011;66064;50.226;14.344;2023-02-01T00:29:02;8.95;;;8.50;;
77111;SDS011;66064;50.226;14.344;2023-02-01T00:31:30;8.85;;;8.30;;
77111;SDS011;66064;50.226;14.344;2023-02-01T00:33:56;9.18;;;8.68;;
77111;SDS011;66064;50.226;14.344;2023-02-01T00:36:22;9.07;;;8.60;;
77111;SDS011;66064;50.226;14.344;2023-02-01T00:38:48;7.90;;;7.35;;
77111;SDS011;66064;50.226;14.344;2023-02-01T00:41:16;6.85;;;6.45;;
77111;SDS011;66064;50.226;14.344;2023-02-01T00:43:43;8.80;;;8.20;;
77111;SDS011;66064;50.226;14.344;2023-02-01T00:46:10;7.55;;;6.90;;
77111;SDS011;66064;50.226;14.344;2023-02-01T00:48:37;9.55;;;8.88;;
77111;SDS011;66064;50.226;14.344;2023-02-01T00:51:11;8.70;;;8.20;;
77111;SDS011;66064;50.226;14.344;2023-02-01T00:53:39;9.80;;;8.93;;
77111;SDS011;66064;50.226;14.344;2023-02-01T00:56:05;8.30;;;7.75;;
77111;SDS011;66064;50.226;14.344;2023-02-01T00:58:31;8.98;;;8.48;;
77111;SDS011;66064;50.226;14.344;2023-02-01T01:03:57;7.82;;;7.22;;
77111;SDS011;66064;50.226;14.344;2023-02-01T01:06:26;9.55;;;8.95;;
77111;SDS011;66064;50.226;14.344;2023-02-01T01:08:55;8.50;;;8.00;;
77111;SDS011;66064;50.226;14.344;2023-02-01T01:11:23;10.40;;;9.80;;
77111;SDS011;66064;50.226;14.344;2023-02-01T01:13:52;8.68;;;8.07;;
77111;SDS011;66064;50.226;14.344;2023-02-01T01:16:20;8.75;;;8.02;;
77111;SDS011;66064;50.226;14.344;2023-02-01T01:18:46;9.73;;;9.02;;
77111;SDS011;66064;50.226;14.344;2023-02-01T01:21:13;10.25;;;9.60;;
77111;SDS011;66064;50.226;14.344;2023-02-01T01:23:40;8.35;;;7.85;;
77111;SDS011;66064;50.226;14.344;2023-02-01T01:26:07;10.10;;;9.25;;
77111;SDS011;66064;50.226;14.344;2023-02-01T01:28:34;10.10;;;9.35;;
77111;SDS011;66064;50.226;14.344;2023-02-01T01:31:00;8.73;;;7.97;;
77111;SDS011;66064;50.226;14.344;2023-02-01T01:33:26;11.32;;;10.30;;
77111;SDS011;66064;50.226;14.344;2023-02-01T01:35:52;9.73;;;9.23;;
77111;SDS011;66064;50.226;14.344;2023-02-01T01:38:18;10.40;;;9.73;;
77111;SDS011;66064;50.226;14.344;2023-02-01T01:40:44;9.35;;;8.73;;
77111;SDS011;66064;50.226;14.344;2023-02-01T01:43:15;8.07;;;7.57;;
77111;SDS011;66064;50.226;14.344;2023-02-01T01:45:43;8.10;;;7.30;;
77111;SDS011;66064;50.226;14.344;2023-02-01T01:48:11;8.35;;;7.85;;
77111;SDS011;66064;50.226;14.344;2023-02-01T01:50:50;9.35;;;8.52;;
77111;SDS011;66064;50.226;14.344;2023-02-01T01:53:27;8.00;;;7.45;;
77111;SDS011;66064;50.226;14.344;2023-02-01T01:55:57;10.52;;;9.73;;
77111;SDS011;66064;50.226;14.344;2023-02-01T01:58:24;7.65;;;6.97;;
77111;SDS011;66064;50.226;14.344;2023-02-01T02:00:54;10.05;;;9.18;;
77111;SDS011;66064;50.226;14.344;2023-02-01T02:03:21;12.35;;;11.52;;
77111;SDS011;66064;50.226;14.344;2023-02-01T02:05:52;11.85;;;11.15;;
77111;SDS011;66064;50.226;14.344;2023-02-01T02:10:48;9.40;;;8.90;;
77111;SDS011;66064;50.226;14.344;2023-02-01T02:13:41;9.88;;;9.23;;
77111;SDS011;66064;50.226;14.344;2023-02-01T02:18:48;13.07;;;8.88;;
77111;SDS011;66064;50.226;14.344;2023-02-01T02:21:38;8.52;;;7.70;;
77111;SDS011;66064;50.226;14.344;2023-02-01T02:27:12;10.10;;;9.40;;
77111;SDS011;66064;50.226;14.344;2023-02-01T02:30:15;8.82;;;8.25;;
77111;SDS011;66064;50.226;14.344;2023-02-01T02:33:14;7.80;;;7.28;;
77111;SDS011;66064;50.226;14.344;2023-02-01T02:46:30;8.73;;;7.93;;
77111;SDS011;66064;50.226;14.344;2023-02-01T02:49:34;10.40;;;9.60;;
77111;SDS011;66064;50.226;14.344;2023-02-01T02:52:09;8.68;;;7.85;;
77111;SDS011;66064;50.226;14.344;2023-02-01T02:55:01;10.13;;;9.43;;
77111;SDS011;66064;50.226;14.344;2023-02-01T03:00:24;8.30;;;7.82;;
77111;SDS011;66064;50.226;14.344;2023-02-01T03:03:12;8.77;;;8.18;;
77111;SDS011;66064;50.226;14.344;2023-02-01T03:05:57;8.50;;;7.93;;
77111;SDS011;66064;50.226;14.344;2023-02-01T03:08:24;9.02;;;8.20;;
77111;SDS011;66064;50.226;14.344;2023-02-01T03:21:00;7.13;;;6.72;;
77111;SDS011;66064;50.226;14.344;2023-02-01T03:23:32;8.93;;;8.05;;
77111;SDS011;66064;50.226;14.344;2023-02-01T03:26:01;8.88;;;8.05;;
77111;SDS011;66064;50.226;14.344;2023-02-01T03:28:29;8.38;;;7.05;;
77111;SDS011;66064;50.226;14.344;2023-02-01T03:30:59;9.02;;;8.43;;
77111;SDS011;66064;50.226;14.344;2023-02-01T03:33:25;6.78;;;6.28;;
77111;SDS011;66064;50.226;14.344;2023-02-01T03:41:26;8.63;;;8.13;;
77111;SDS011;66064;50.226;14.344;2023-02-01T03:47:22;9.13;;;8.57;;
77111;SDS011;66064;50.226;14.344;2023-02-01T03:49:58;6.38;;;5.97;;
77111;SDS011;66064;50.226;14.344;2023-02-01T03:52:29;10.23;;;9.52;;
77111;SDS011;66064;50.226;14.344;2023-02-01T03:55:09;10.38;;;9.45;;
77111;SDS011;66064;50.226;14.344;2023-02-01T03:57:39;9.80;;;9.20;;
77111;SDS011;66064;50.226;14.344;2023-02-01T04:00:14;8.95;;;8.48;;
77111;SDS011;66064;50.226;14.344;2023-02-01T04:02:43;9.73;;;8.88;;
77111;SDS011;66064;50.226;14.344;2023-02-01T04:05:09;8.18;;;7.57;;
77111;SDS011;66064;50.226;14.344;2023-02-01T04:07:35;9.13;;;8.68;;
77111;SDS011;66064;50.226;14.344;2023-02-01T04:10:00;9.68;;;9.02;;
77111;SDS011;66064;50.226;14.344;2023-02-01T04:12:29;11.05;;;8.38;;
77111;SDS011;66064;50.226;14.344;2023-02-01T04:14:54;8.95;;;8.35;;
77111;SDS011;66064;50.226;14.344;2023-02-01T04:17:20;10.38;;;9.77;;
77111;SDS011;66064;50.226;14.344;2023-02-01T04:19:46;11.25;;;10.38;;
77111;SDS011;66064;50.226;14.344;2023-02-01T04:22:12;8.75;;;8.10;;
77111;SDS011;66064;50.226;14.344;2023-02-01T04:24:38;10.32;;;9.48;;
77111;SDS011;66064;50.226;14.344;2023-02-01T04:27:04;9.75;;;9.07;;
77111;SDS011;66064;50.226;14.344;2023-02-01T04:29:30;9.85;;;9.02;;
77111;SDS011;66064;50.226;14.344;2023-02-01T04:31:56;10.85;;;10.05;;
77111;SDS011;66064;50.226;14.344;2023-02-01T04:34:21;9.00;;;8.23;;
77111;SDS011;66064;50.226;14.344;2023-02-01T04:36:50;9.70;;;9.10;;
77111;SDS011;66064;50.226;14.344;2023-02-01T04:39:16;12.05;;;11.10;;
77111;SDS011;66064;50.226;14.344;2023-02-01T04:41:43;9.95;;;9.20;;
77111;SDS011;66064;50.226;14.344;2023-02-01T04:44:15;10.50;;;9.57;;
77111;SDS011;66064;50.226;14.344;2023-02-01T04:46:43;11.68;;;10.88;;
77111;SDS011;66064;50.226;14.344;2023-02-01T04:49:10;8.75;;;8.07;;
77111;SDS011;66064;50.226;14.344;2023-02-01T04:51:36;10.13;;;9.48;;
77111;SDS011;66064;50.226;14.344;2023-02-01T04:54:02;10.77;;;9.68;;
77111;SDS011;66064;50.226;14.344;2023-02-01T04:56:28;10.27;;;9.48;;
77111;SDS011;66064;50.226;14.344;2023-02-01T04:58:54;11.35;;;10.50;;
77111;SDS011;66064;50.226;14.344;2023-02-01T05:01:21;9.57;;;8.98;;
77111;SDS011;66064;50.226;14.344;2023-02-01T05:03:47;12.15;;;11.25;;
77111;SDS011;66064;50.226;14.344;2023-02-01T05:06:13;9.35;;;8.65;;
77111;SDS011;66064;50.226;14.344;2023-02-01T05:08:39;9.82;;;8.93;;
77111;SDS011;66064;50.226;14.344;2023-02-01T05:11:05;9.77;;;8.65;;
77111;SDS011;66064;50.226;14.344;2023-02-01T05:13:31;9.10;;;8.50;;
77111;SDS011;66064;50.226;14.344;2023-02-01T05:16:15;7.45;;;6.95;;
77111;SDS011;66064;50.226;14.344;2023-02-01T05:18:41;10.57;;;9.68;;
77111;SDS011;66064;50.226;14.344;2023-02-01T05:21:08;10.15;;;9.25;;
77111;SDS011;66064;50.226;14.344;2023-02-01T05:23:33;10.30;;;9.48;;
77111;SDS011;66064;50.226;14.344;2023-02-01T05:26:19;9.88;;;8.65;;
77111;SDS011;66064;50.226;14.344;2023-02-01T05:28:45;8.88;;;8.27;;
77111;SDS011;66064;50.226;14.344;2023-02-01T05:31:11;8.65;;;7.85;;
77111;SDS011;66064;50.226;14.344;2023-02-01T05:33:37;8.82;;;8.30;;
77111;SDS011;66064;50.226;14.344;2023-02-01T05:36:03;8.80;;;8.07;;
77111;SDS011;66064;50.226;14.344;2023-02-01T05:38:29;7.32;;;6.70;;
77111;SDS011;66064;50.226;14.344;2023-02-01T05:40:55;13.60;;;10.13;;
77111;SDS011;66064;50.226;14.344;2023-02-01T05:43:21;9.85;;;9.23;;
77111;SDS011;66064;50.226;14.344;2023-02-01T05:45:47;9.05;;;8.30;;
77111;SDS011;66064;50.226;14.344;2023-02-01T05:48:13;10.00;;;8.48;;
77111;SDS011;66064;50.226;14.344;2023-02-01T05:50:39;10.57;;;9.88;;
77111;SDS011;66064;50.226;14.344;2023-02-01T05:53:05;12.65;;;9.63;;
77111;SDS011;66064;50.226;14.344;2023-02-01T05:55:31;11.27;;;10.15;;
77111;SDS011;66064;50.226;14.344;2023-02-01T05:57:57;10.20;;;9.35;;
77111;SDS011;66064;50.226;14.344;2023-02-01T06:00:23;9.52;;;8.55;;
77111;SDS011;66064;50.226;14.344;2023-02-01T06:02:49;9.77;;;8.98;;
77111;SDS011;66064;50.226;14.344;2023-02-01T06:05:15;10.07;;;9.25;;
77111;SDS011;66064;50.226;14.344;2023-02-01T06:07:41;10.65;;;9.63;;
77111;SDS011;66064;50.226;14.344;2023-02-01T06:10:08;8.98;;;8.38;;
77111;SDS011;66064;50.226;14.344;2023-02-01T06:12:34;10.68;;;9.88;;
77111;SDS011;66064;50.226;14.344;2023-02-01T06:15:00;8.77;;;8.23;;
77111;SDS011;66064;50.226;14.344;2023-02-01T06:17:26;9.40;;;8.65;;
77111;SDS011;66064;50.226;14.344;2023-02-01T06:19:52;8.95;;;8.40;;
77111;SDS011;66064;50.226;14.344;2023-02-01T06:22:18;9.98;;;9.23;;
77111;SDS011;66064;50.226;14.344;2023-02-01T06:24:44;8.73;;;8.02;;
77111;SDS011;66064;50.226;14.344;2023-02-01T06:27:09;8.70;;;8.05;;
77111;SDS011;66064;50.226;14.344;2023-02-01T06:29:36;8.88;;;8.20;;
77111;SDS011;66064;50.226;14.344;2023-02-01T06:32:01;10.20;;;9.40;;
77111;SDS011;66064;50.226;14.344;2023-02-01T06:34:28;10.15;;;9.35;;
77111;SDS011;66064;50.226;14.344;2023-02-01T06:36:54;9.68;;;8.95;;
77111;SDS011;66064;50.226;14.344;2023-02-01T06:39:20;9.20;;;8.60;;
77111;SDS011;66064;50.226;14.344;2023-02-01T06:41:47;12.50;;;8.45;;
77111;SDS011;66064;50.226;14.344;2023-02-01T06:44:14;9.73;;;9.18;;
77111;SDS011;66064;50.226;14.344;2023-02-01T06:46:40;9.02;;;8.43;;
77111;SDS011;66064;50.226;14.344;2023-02-01T06:49:06;8.77;;;7.97;;
77111;SDS011;66064;50.226;14.344;2023-02-01T06:51:32;10.55;;;9.85;;
77111;SDS011;66064;50.226;14.344;2023-02-01T06:53:58;8.45;;;7.75;;
77111;SDS011;66064;50.226;14.344;2023-02-01T06:56:24;9.13;;;8.52;;
77111;SDS011;66064;50.226;14.344;2023-02-01T06:58:50;9.48;;;8.63;;
77111;SDS011;66064;50.226;14.344;2023-02-01T07:01:16;9.93;;;9.32;;
77111;SDS011;66064;50.226;14.344;2023-02-01T07:03:46;11.80;;;11.07;;
77111;SDS011;66064;50.226;14.344;2023-02-01T07:06:12;8.20;;;7.57;;
77111;SDS011;66064;50.226;14.344;2023-02-01T07:08:38;10.02;;;9.43;;
77111;SDS011;66064;50.226;14.344;2023-02-01T07:13:31;8.52;;;7.47;;
77111;SDS011;66064;50.226;14.344;2023-02-01T07:15:58;12.75;;;11.45;;
77111;SDS011;66064;50.226;14.344;2023-02-01T07:18:25;15.40;;;13.85;;
77111;SDS011;66064;50.226;14.344;2023-02-01T07:20:52;11.30;;;10.50;;
77111;SDS011;66064;50.226;14.344;2023-02-01T07:23:18;11.85;;;10.95;;
77111;SDS011;66064;50.226;14.344;2023-02-01T07:25:45;11.30;;;10.45;;
77111;SDS011;66064;50.226;14.344;2023-02-01T07:28:12;12.63;;;11.73;;
77111;SDS011;66064;50.226;14.344;2023-02-01T07:30:38;11.25;;;10.13;;
77111;SDS011;66064;50.226;14.344;2023-02-01T07:33:04;13.38;;;11.40;;
77111;SDS011;66064;50.226;14.344;2023-02-01T07:35:31;14.40;;;13.23;;
77111;SDS011;66064;50.226;14.344;2023-02-01T07:37:58;14.13;;;10.02;;
77111;SDS011;66064;50.226;14.344;2023-02-01T07:40:24;8.50;;;7.85;;
77111;SDS011;66064;50.226;14.344;2023-02-01T07:42:54;10.50;;;9.60;;
77111;SDS011;66064;50.226;14.344;2023-02-01T07:45:21;17.77;;;14.55;;
77111;SDS011;66064;50.226;14.344;2023-02-01T07:47:48;13.70;;;12.38;;
77111;SDS011;66064;50.226;14.344;2023-02-01T07:50:14;13.90;;;12.77;;
77111;SDS011;66064;50.226;14.344;2023-02-01T07:52:40;19.10;;;13.77;;
77111;SDS011;66064;50.226;14.344;2023-02-01T07:55:07;10.80;;;9.93;;
77111;SDS011;66064;50.226;14.344;2023-02-01T07:57:33;8.73;;;7.95;;
77111;SDS011;66064;50.226;14.344;2023-02-01T07:59:59;11.18;;;10.07;;
77111;SDS011;66064;50.226;14.344;2023-02-01T08:02:44;9.85;;;9.00;;
77111;SDS011;66064;50.226;14.344;2023-02-01T08:05:09;12.20;;;11.18;;
77111;SDS011;66064;50.226;14.344;2023-02-01T08:07:35;10.68;;;9.88;;
77111;SDS011;66064;50.226;14.344;2023-02-01T08:10:01;7.90;;;7.22;;
77111;SDS011;66064;50.226;14.344;2023-02-01T08:12:27;10.32;;;9.55;;
77111;SDS011;66064;50.226;14.344;2023-02-01T08:14:53;10.35;;;9.55;;
77111;SDS011;66064;50.226;14.344;2023-02-01T08:17:21;8.30;;;7.43;;
77111;SDS011;66064;50.226;14.344;2023-02-01T08:19:47;9.65;;;8.85;;
77111;SDS011;66064;50.226;14.344;2023-02-01T08:22:13;10.10;;;9.38;;
77111;SDS011;66064;50.226;14.344;2023-02-01T08:24:39;7.75;;;7.18;;
77111;SDS011;66064;50.226;14.344;2023-02-01T08:27:06;9.18;;;8.38;;
77111;SDS011;66064;50.226;14.344;2023-02-01T08:29:32;9.98;;;9.38;;
77111;SDS011;66064;50.226;14.344;2023-02-01T08:31:58;10.60;;;9.57;;
77111;SDS011;66064;50.226;14.344;2023-02-01T08:34:24;9.32;;;8.43;;
77111;SDS011;66064;50.226;14.344;2023-02-01T08:36:50;8.68;;;8.07;;
77111;SDS011;66064;50.226;14.344;2023-02-01T08:39:22;9.27;;;8.43;;
77111;SDS011;66064;50.226;14.344;2023-02-01T08:41:48;10.63;;;9.77;;
77111;SDS011;66064;50.226;14.344;2023-02-01T08:44:34;10.35;;;9.57;;
77111;SDS011;66064;50.226;14.344;2023-02-01T08:47:00;9.70;;;8.98;;
77111;SDS011;66064;50.226;14.344;2023-02-01T08:49:26;9.25;;;8.63;;
77111;SDS011;66064;50.226;14.344;2023-02-01T08:51:52;8.73;;;7.82;;
77111;SDS011;66064;50.226;14.344;2023-02-01T08:54:18;9.02;;;8.20;;
77111;SDS011;66064;50.226;14.344;2023-02-01T08:56:44;10.23;;;9.30;;
77111;SDS011;66064;50.226;14.344;2023-02-01T08:59:10;9.68;;;8.35;;
77111;SDS011;66064;50.226;14.344;2023-02-01T09:01:36;9.80;;;7.75;;
77111;SDS011;66064;50.226;14.344;2023-02-01T09:04:01;9.18;;;8.35;;
77111;SDS011;66064;50.226;14.344;2023-02-01T09:06:27;8.30;;;7.40;;
77111;SDS011;66064;50.226;14.344;2023-02-01T09:08:53;7.78;;;7.00;;
77111;SDS011;66064;50.226;14.344;2023-02-01T09:11:19;9.95;;;7.07;;
77111;SDS011;66064;50.226;14.344;2023-02-01T09:13:46;8.90;;;8.15;;
77111;SDS011;66064;50.226;14.344;2023-02-01T09:16:13;10.57;;;6.68;;
77111;SDS011;66064;50.226;14.344;2023-02-01T09:18:39;9.70;;;9.00;;
77111;SDS011;66064;50.226;14.344;2023-02-01T09:21:06;8.70;;;5.88;;
77111;SDS011;66064;50.226;14.344;2023-02-01T09:23:33;9.00;;;8.27;;
77111;SDS011;66064;50.226;14.344;2023-02-01T09:26:00;7.43;;;6.80;;
77111;SDS011;66064;50.226;14.344;2023-02-01T09:28:26;9.15;;;8.55;;
77111;SDS011;66064;50.226;14.344;2023-02-01T09:30:59;8.68;;;7.90;;
77111;SDS011;66064;50.226;14.344;2023-02-01T09:33:26;7.80;;;7.07;;
77111;SDS011;66064;50.226;14.344;2023-02-01T09:36:00;8.77;;;7.88;;
77111;SDS011;66064;50.226;14.344;2023-02-01T09:38:28;6.47;;;5.97;;
77111;SDS011;66064;50.226;14.344;2023-02-01T09:40:55;8.57;;;7.95;;
77111;SDS011;66064;50.226;14.344;2023-02-01T09:48:53;6.63;;;6.22;;
77111;SDS011;66064;50.226;14.344;2023-02-01T09:51:28;9.23;;;6.80;;
77111;SDS011;66064;50.226;14.344;2023-02-01T09:53:59;7.82;;;7.07;;
77111;SDS011;66064;50.226;14.344;2023-02-01T09:56:35;8.15;;;7.63;;
77111;SDS011;66064;50.226;14.344;2023-02-01T10:01:57;8.63;;;7.97;;
77111;SDS011;66064;50.226;14.344;2023-02-01T10:04:24;8.60;;;7.85;;
77111;SDS011;66064;50.226;14.344;2023-02-01T10:06:54;9.05;;;8.40;;
77111;SDS011;66064;50.226;14.344;2023-02-01T10:15:09;8.75;;;8.05;;
77111;SDS011;66064;50.226;14.344;2023-02-01T10:26:21;7.25;;;6.55;;
77111;SDS011;66064;50.226;14.344;2023-02-01T10:28:50;8.25;;;7.63;;
77111;SDS011;66064;50.226;14.344;2023-02-01T10:31:18;8.40;;;7.65;;
77111;SDS011;66064;50.226;14.344;2023-02-01T10:33:48;8.43;;;7.65;;
77111;SDS011;66064;50.226;14.344;2023-02-01T10:39:06;8.88;;;8.25;;
77111;SDS011;66064;50.226;14.344;2023-02-01T10:41:38;7.80;;;7.20;;
77111;SDS011;66064;50.226;14.344;2023-02-01T10:44:27;7.55;;;6.85;;
77111;SDS011;66064;50.226;14.344;2023-02-01T10:46:53;9.25;;;8.63;;
77111;SDS011;66064;50.226;14.344;2023-02-01T10:49:22;10.48;;;8.52;;
77111;SDS011;66064;50.226;14.344;2023-02-01T10:51:59;9.65;;;8.70;;
77111;SDS011;66064;50.226;14.344;2023-02-01T10:54:38;9.57;;;8.73;;
77111;SDS011;66064;50.226;14.344;2023-02-01T10:57:19;11.57;;;7.30;;
77111;SDS011;66064;50.226;14.344;2023-02-01T10:59:55;10.27;;;9.30;;
77111;SDS011;66064;50.226;14.344;2023-02-01T11:02:29;8.40;;;7.60;;
77111;SDS011;66064;50.226;14.344;2023-02-01T11:04:59;8.07;;;7.45;;
77111;SDS011;66064;50.226;14.344;2023-02-01T11:07:27;9.25;;;8.52;;
77111;SDS011;66064;50.226;14.344;2023-02-01T11:09:54;9.18;;;8.27;;
77111;SDS011;66064;50.226;14.344;2023-02-01T11:15:22;9.25;;;8.13;;
77111;SDS011;66064;50.226;14.344;2023-02-01T11:17:49;7.97;;;7.28;;
77111;SDS011;66064;50.226;14.344;2023-02-01T11:22:56;8.02;;;7.32;;
77111;SDS011;66064;50.226;14.344;2023-02-01T11:25:23;9.30;;;8.48;;
77111;SDS011;66064;50.226;14.344;2023-02-01T11:27:51;11.05;;;7.95;;
77111;SDS011;66064;50.226;14.344;2023-02-01T11:30:36;9.10;;;8.30;;
77111;SDS011;66064;50.226;14.344;2023-02-01T11:33:05;9.35;;;8.45;;
77111;SDS011;66064;50.226;14.344;2023-02-01T11:35:37;9.00;;;8.23;;
77111;SDS011;66064;50.226;14.344;2023-02-01T11:38:11;9.35;;;8.45;;
77111;SDS011;66064;50.226;14.344;2023-02-01T11:41:22;21.52;;;11.27;;
77111;SDS011;66064;50.226;14.344;2023-02-01T11:44:00;11.05;;;10.20;;
77111;SDS011;66064;50.226;14.344;2023-02-01T11:46:28;9.05;;;8.27;;
77111;SDS011;66064;50.226;14.344;2023-02-01T11:48:56;9.57;;;8.57;;
77111;SDS011;66064;50.226;14.344;2023-02-01T11:56:37;8.32;;;7.72;;
77111;SDS011;66064;50.226;14.344;2023-02-01T12:07:14;8.57;;;7.68;;
77111;SDS011;66064;50.226;14.344;2023-02-01T12:13:15;7.90;;;6.70;;
77111;SDS011;66064;50.226;14.344;2023-02-01T12:16:11;10.77;;;9.88;;
77111;SDS011;66064;50.226;14.344;2023-02-01T12:22:33;8.25;;;7.47;;
77111;SDS011;66064;50.226;14.344;2023-02-01T12:33:25;8.13;;;7.63;;
77111;SDS011;66064;50.226;14.344;2023-02-01T12:36:16;7.55;;;7.05;;
77111;SDS011;66064;50.226;14.344;2023-02-01T12:39:11;7.97;;;7.38;;
77111;SDS011;66064;50.226;14.344;2023-02-01T12:41:58;10.43;;;7.70;;
77111;SDS011;66064;50.226;14.344;2023-02-01T12:52:23;8.38;;;7.65;;
77111;SDS011;66064;50.226;14.344;2023-02-01T12:57:24;12.13;;;9.18;;
77111;SDS011;66064;50.226;14.344;2023-02-01T13:00:18;11.18;;;7.68;;
77111;SDS011;66064;50.226;14.344;2023-02-01T13:02:42;7.05;;;6.43;;
77111;SDS011;66064;50.226;14.344;2023-02-01T13:05:18;10.25;;;9.25;;
77111;SDS011;66064;50.226;14.344;2023-02-01T13:10:24;10.43;;;8.70;;
77111;SDS011;66064;50.226;14.344;2023-02-01T13:15:43;13.23;;;6.40;;
77111;SDS011;66064;50.226;14.344;2023-02-01T13:18:18;8.82;;;7.63;;
77111;SDS011;66064;50.226;14.344;2023-02-01T13:21:06;9.65;;;5.85;;
77111;SDS011;66064;50.226;14.344;2023-02-01T13:23:45;8.90;;;8.00;;
77111;SDS011;66064;50.226;14.344;2023-02-01T13:26:13;9.50;;;8.32;;
77111;SDS011;66064;50.226;14.344;2023-02-01T13:39:24;6.93;;;6.43;;
77111;SDS011;66064;50.226;14.344;2023-02-01T13:44:31;7.13;;;6.38;;
77111;SDS011;66064;50.226;14.344;2023-02-01T13:47:03;10.57;;;7.68;;
77111;SDS011;66064;50.226;14.344;2023-02-01T13:49:39;13.10;;;8.35;;
77111;SDS011;66064;50.226;14.344;2023-02-01T13:52:06;16.83;;;10.77;;
77111;SDS011;66064;50.226;14.344;2023-02-01T13:54:48;12.93;;;9.52;;
77111;SDS011;66064;50.226;14.344;2023-02-01T13:57:37;17.13;;;10.93;;
77111;SDS011;66064;50.226;14.344;2023-02-01T14:00:22;9.30;;;8.38;;
77111;SDS011;66064;50.226;14.344;2023-02-01T14:03:01;7.32;;;6.82;;
77111;SDS011;66064;50.226;14.344;2023-02-01T14:19:46;11.63;;;10.98;;
77111;SDS011;66064;50.226;14.344;2023-02-01T14:24:50;11.75;;;11.05;;
77111;SDS011;66064;50.226;14.344;2023-02-01T14:27:20;16.13;;;15.13;;
77111;SDS011;66064;50.226;14.344;2023-02-01T14:29:53;14.00;;;13.23;;
77111;SDS011;66064;50.226;14.344;2023-02-01T14:32:37;12.40;;;11.52;;
77111;SDS011;66064;50.226;14.344;2023-02-01T14:35:06;14.23;;;13.50;;
77111;SDS011;66064;50.226;14.344;2023-02-01T14:37:47;16.52;;;15.52;;
77111;SDS011;66064;50.226;14.344;2023-02-01T14:40:23;14.23;;;13.52;;
77111;SDS011;66064;50.226;14.344;2023-02-01T14:42:52;12.63;;;12.00;;
77111;SDS011;66064;50.226;14.344;2023-02-01T14:47:45;13.95;;;13.30;;
77111;SDS011;66064;50.226;14.344;2023-02-01T14:50:34;12.02;;;11.18;;
77111;SDS011;66064;50.226;14.344;2023-02-01T14:55:48;8.85;;;8.15;;
77111;SDS011;66064;50.226;14.344;2023-02-01T15:00:51;10.88;;;10.18;;
77111;SDS011;66064;50.226;14.344;2023-02-01T15:06:22;15.30;;;14.18;;
77111;SDS011;66064;50.226;14.344;2023-02-01T15:08:54;15.90;;;15.00;;
77111;SDS011;66064;50.226;14.344;2023-02-01T15:11:22;12.60;;;11.90;;
77111;SDS011;66064;50.226;14.344;2023-02-01T15:13:49;15.18;;;14.38;;
77111;SDS011;66064;50.226;14.344;2023-02-01T15:16:19;13.27;;;12.50;;
77111;SDS011;66064;50.226;14.344;2023-02-01T15:18:46;14.40;;;13.48;;
77111;SDS011;66064;50.226;14.344;2023-02-01T15:21:17;13.90;;;12.77;;
77111;SDS011;66064;50.226;14.344;2023-02-01T15:23:45;17.25;;;16.10;;
77111;SDS011;66064;50.226;14.344;2023-02-01T15:26:29;14.27;;;13.35;;
77111;SDS011;66064;50.226;14.344;2023-02-01T15:28:57;15.13;;;14.43;;
77111;SDS011;66064;50.226;14.344;2023-02-01T15:31:46;15.30;;;14.57;;
77111;SDS011;66064;50.226;14.344;2023-02-01T15:34:17;15.25;;;13.95;;
77111;SDS011;66064;50.226;14.344;2023-02-01T15:36:44;15.75;;;14.77;;
77111;SDS011;66064;50.226;14.344;2023-02-01T15:39:21;15.55;;;14.55;;
77111;SDS011;66064;50.226;14.344;2023-02-01T15:41:55;16.42;;;15.40;;
77111;SDS011;66064;50.226;14.344;2023-02-01T15:46:55;15.27;;;14.45;;
77111;SDS011;66064;50.226;14.344;2023-02-01T15:51:56;12.50;;;11.57;;
77111;SDS011;66064;50.226;14.344;2023-02-01T15:54:25;8.43;;;7.63;;
77111;SDS011;66064;50.226;14.344;2023-02-01T15:56:56;14.50;;;13.48;;
77111;SDS011;66064;50.226;14.344;2023-02-01T15:59:30;16.00;;;15.15;;
77111;SDS011;66064;50.226;14.344;2023-02-01T16:02:01;16.50;;;15.23;;
77111;SDS011;66064;50.226;14.344;2023-02-01T16:04:27;16.60;;;15.13;;
77111;SDS011;66064;50.226;14.344;2023-02-01T16:07:01;13.27;;;12.57;;
77111;SDS011;66064;50.226;14.344;2023-02-01T16:09:37;19.42;;;18.00;;
77111;SDS011;66064;50.226;14.344;2023-02-01T16:15:00;17.95;;;16.92;;
77111;SDS011;66064;50.226;14.344;2023-02-01T16:17:26;16.88;;;15.88;;
77111;SDS011;66064;50.226;14.344;2023-02-01T16:19:52;15.30;;;14.57;;
77111;SDS011;66064;50.226;14.344;2023-02-01T16:22:19;17.60;;;16.60;;
77111;SDS011;66064;50.226;14.344;2023-02-01T16:24:45;12.55;;;9.13;;
77111;SDS011;66064;50.226;14.344;2023-02-01T16:27:11;18.73;;;17.50;;
77111;SDS011;66064;50.226;14.344;2023-02-01T16:29:37;15.73;;;14.68;;
77111;SDS011;66064;50.226;14.344;2023-02-01T16:32:03;17.95;;;16.60;;
77111;SDS011;66064;50.226;14.344;2023-02-01T16:34:30;16.42;;;15.57;;
77111;SDS011;66064;50.226;14.344;2023-02-01T16:36:56;16.85;;;16.00;;
77111;SDS011;66064;50.226;14.344;2023-02-01T16:39:23;15.07;;;14.27;;
77111;SDS011;66064;50.226;14.344;2023-02-01T16:41:50;14.75;;;14.00;;
77111;SDS011;66064;50.226;14.344;2023-02-01T16:44:16;14.00;;;12.95;;
77111;SDS011;66064;50.226;14.344;2023-02-01T16:46:45;16.10;;;15.10;;
77111;SDS011;66064;50.226;14.344;2023-02-01T16:49:23;30.88;;;21.80;;
77111;SDS011;66064;50.226;14.344;2023-02-01T16:51:50;16.88;;;15.38;;
77111;SDS011;66064;50.226;14.344;2023-02-01T16:54:20;16.83;;;15.80;;
77111;SDS011;66064;50.226;14.344;2023-02-01T16:56:46;17.15;;;15.98;;
77111;SDS011;66064;50.226;14.344;2023-02-01T16:59:12;15.40;;;14.00;;
77111;SDS011;66064;50.226;14.344;2023-02-01T17:01:39;15.95;;;14.52;;
77111;SDS011;66064;50.226;14.344;2023-02-01T17:04:08;14.57;;;13.77;;
77111;SDS011;66064;50.226;14.344;2023-02-01T17:06:35;16.55;;;15.25;;
77111;SDS011;66064;50.226;14.344;2023-02-01T17:09:03;22.63;;;20.13;;
77111;SDS011;66064;50.226;14.344;2023-02-01T17:11:29;30.17;;;19.98;;
77111;SDS011;66064;50.226;14.344;2023-02-01T17:13:56;37.35;;;23.63;;
77111;SDS011;66064;50.226;14.344;2023-02-01T17:16:30;39.15;;;27.58;;
77111;SDS011;66064;50.226;14.344;2023-02-01T17:18:58;38.83;;;29.52;;
77111;SDS011;66064;50.226;14.344;2023-02-01T17:21:27;32.70;;;22.85;;
77111;SDS011;66064;50.226;14.344;2023-02-01T17:23:55;24.85;;;22.63;;
77111;SDS011;66064;50.226;14.344;2023-02-01T17:26:24;39.05;;;26.25;;
77111;SDS011;66064;50.226;14.344;2023-02-01T17:28:50;19.45;;;13.77;;
77111;SDS011;66064;50.226;14.344;2023-02-01T17:31:16;42.05;;;31.38;;
77111;SDS011;66064;50.226;14.344;2023-02-01T17:33:42;61.38;;;43.33;;